createdAt,value
2023-02-08T00:01:27.472Z,99.90
2023-02-08T00:04:30.433Z,99.90
2023-02-08T00:07:33.378Z,99.90
2023-02-08T00:10:36.618Z,99.90
2023-02-08T00:13:42.115Z,99.90
2023-02-08T00:16:46.658Z,99.90
2023-02-08T00:19:49.603Z,99.90
2023-02-08T00:22:53.437Z,99.90
2023-02-08T00:25:56.438Z,99.90
2023-02-08T00:28:59.395Z,99.90
2023-02-08T00:32:03.801Z,99.90
2023-02-08T00:35:07.357Z,99.90
2023-02-08T00:38:10.341Z,99.90
2023-02-08T00:41:13.514Z,99.90
2023-02-08T00:44:16.444Z,99.90
2023-02-08T00:47:20.724Z,99.90
2023-02-08T00:50:23.658Z,99.90
2023-02-08T00:53:26.650Z,99.90
2023-02-08T00:56:29.585Z,99.90
2023-02-08T00:59:32.596Z,99.90
2023-02-08T01:02:38.622Z,99.90
2023-02-08T01:05:41.565Z,99.90
2023-02-08T01:08:45.067Z,99.90
2023-02-08T01:11:48.078Z,99.90
2023-02-08T01:14:51.000Z,99.90
2023-02-08T01:17:57.547Z,99.90
2023-02-08T01:21:05.795Z,99.90
2023-02-08T01:24:09.261Z,99.90
2023-02-08T01:27:12.214Z,99.90
2023-02-08T01:30:15.249Z,99.90
2023-02-08T01:33:19.514Z,99.90
2023-02-08T01:36:22.815Z,99.90
2023-02-08T01:39:25.789Z,99.90
2023-02-08T01:42:28.932Z,99.90
2023-02-08T01:45:33.354Z,99.90
2023-02-08T01:48:42.143Z,99.90
2023-02-08T01:51:48.981Z,99.90
2023-02-08T01:54:54.813Z,99.90
2023-02-08T01:58:01.712Z,99.90
2023-02-08T02:01:05.734Z,99.90
2023-02-08T02:04:10.226Z,99.90
2023-02-08T02:07:14.281Z,99.90
2023-02-08T02:10:23.816Z,99.90
2023-02-08T02:13:28.394Z,99.90
2023-02-08T02:16:31.715Z,99.90
2023-02-08T02:19:43.645Z,99.90
2023-02-08T02:23:19.968Z,99.90
2023-02-08T02:26:43.359Z,99.90
2023-02-08T02:30:25.328Z,99.90
2023-02-08T02:33:41.567Z,99.90
2023-02-08T02:36:52.825Z,99.90
2023-02-08T02:40:04.041Z,99.90
2023-02-08T02:43:32.025Z,99.90
2023-02-08T02:46:42.007Z,99.90
2023-02-08T02:49:52.417Z,99.90
2023-02-08T02:53:01.218Z,99.90
2023-02-08T02:56:10.002Z,99.90
2023-02-08T02:59:15.854Z,99.90
2023-02-08T03:02:19.261Z,99.90
2023-02-08T03:05:23.808Z,99.90
2023-02-08T03:08:46.029Z,99.90
2023-02-08T03:11:55.892Z,99.90
2023-02-08T03:15:06.926Z,99.90
2023-02-08T03:18:21.497Z,99.90
2023-02-08T03:21:35.775Z,99.90
2023-02-08T03:24:46.359Z,99.90
2023-02-08T03:27:56.733Z,99.90
2023-02-08T03:31:05.477Z,99.90
2023-02-08T03:34:13.165Z,99.90
2023-02-08T03:37:22.037Z,99.90
2023-02-08T03:40:29.278Z,99.90
2023-02-08T03:43:38.105Z,99.90
2023-02-08T03:46:44.702Z,99.90
2023-02-08T03:49:52.021Z,99.90
2023-02-08T03:52:57.324Z,99.90
2023-02-08T03:56:05.011Z,99.90
2023-02-08T03:59:13.690Z,99.90
2023-02-08T04:02:20.783Z,99.90
2023-02-08T04:05:25.014Z,99.90
2023-02-08T04:08:29.315Z,99.90
2023-02-08T04:11:32.371Z,99.90
2023-02-08T04:14:35.320Z,99.90
2023-02-08T04:17:38.285Z,99.90
2023-02-08T04:20:41.412Z,99.90
2023-02-08T04:23:45.920Z,99.90
2023-02-08T04:26:49.147Z,99.90
2023-02-08T04:29:52.149Z,99.90
2023-02-08T04:32:55.080Z,99.90
2023-02-08T04:35:58.047Z,99.90
2023-02-08T04:39:02.317Z,99.90
2023-02-08T04:42:05.377Z,99.90
2023-02-08T04:45:09.246Z,99.90
2023-02-08T04:48:12.283Z,99.90
2023-02-08T04:51:15.235Z,99.90
2023-02-08T04:54:19.581Z,99.90
2023-02-08T04:57:22.600Z,99.90
2023-02-08T05:00:25.644Z,99.90
2023-02-08T05:03:28.649Z,99.90
2023-02-08T05:06:31.626Z,99.90
2023-02-08T05:09:35.923Z,99.90
2023-02-08T05:12:38.888Z,99.90
2023-02-08T05:15:41.918Z,99.90
2023-02-08T05:18:45.779Z,99.90
2023-02-08T05:21:48.731Z,99.90
2023-02-08T05:24:52.996Z,99.90
2023-02-08T05:27:56.000Z,99.90
2023-02-08T05:30:59.032Z,99.90
2023-02-08T05:34:02.031Z,99.90
2023-02-08T05:37:05.068Z,99.90
2023-02-08T05:40:13.092Z,99.90
2023-02-08T05:43:16.054Z,99.90
2023-02-08T05:46:19.047Z,99.90
2023-02-08T05:49:22.006Z,99.90
2023-02-08T05:52:24.963Z,99.90
2023-02-08T05:55:29.948Z,99.90
2023-02-08T05:58:32.987Z,99.90
2023-02-08T06:01:35.990Z,99.90
2023-02-08T06:04:39.275Z,99.90
2023-02-08T06:07:42.374Z,99.90
2023-02-08T06:10:49.796Z,99.90
2023-02-08T06:13:52.756Z,99.90
2023-02-08T06:16:55.743Z,99.90
2023-02-08T06:19:58.700Z,99.90
2023-02-08T06:23:01.807Z,99.90
2023-02-08T06:26:07.196Z,99.90
2023-02-08T06:29:10.562Z,99.90
2023-02-08T06:32:13.653Z,99.90
2023-02-08T06:35:16.802Z,99.90
2023-02-08T06:38:20.506Z,99.90
2023-02-08T06:41:24.839Z,99.90
2023-02-08T06:44:27.916Z,99.90
2023-02-08T06:47:30.954Z,99.90
2023-02-08T06:50:34.226Z,99.90
2023-02-08T06:53:37.200Z,99.90
2023-02-08T06:56:41.548Z,99.90
2023-02-08T06:59:44.524Z,99.90
2023-02-08T07:02:47.499Z,99.90
2023-02-08T07:06:04.232Z,99.90
2023-02-08T07:09:08.054Z,99.90
2023-02-08T07:12:13.332Z,99.90
2023-02-08T07:15:16.476Z,99.90
2023-02-08T07:18:19.464Z,99.90
2023-02-08T07:21:22.587Z,99.90
2023-02-08T07:24:25.679Z,99.90
2023-02-08T07:27:30.133Z,99.90
2023-02-08T07:30:33.117Z,99.90
2023-02-08T07:33:36.451Z,99.90
2023-02-08T07:36:39.526Z,99.90
2023-02-08T07:39:42.500Z,99.90
2023-02-08T07:42:46.935Z,99.90
2023-02-08T07:45:49.931Z,99.90
2023-02-08T07:48:53.614Z,99.90
2023-02-08T07:51:56.561Z,99.90
2023-02-08T07:54:59.649Z,99.90
2023-02-08T07:58:03.995Z,99.90
2023-02-08T08:01:20.116Z,99.90
2023-02-08T08:04:25.148Z,99.90
2023-02-08T08:07:28.079Z,99.90
2023-02-08T08:10:31.067Z,99.90
2023-02-08T08:13:35.372Z,99.90
2023-02-08T08:16:38.384Z,99.90
2023-02-08T08:19:41.402Z,99.90
2023-02-08T08:22:44.389Z,99.90
2023-02-08T08:25:47.440Z,99.90
2023-02-08T08:28:51.801Z,99.90
2023-02-08T08:31:54.932Z,99.90
2023-02-08T08:34:57.957Z,99.90
2023-02-08T08:38:00.900Z,99.90
2023-02-08T08:41:08.570Z,99.90
2023-02-08T08:44:12.873Z,99.90
2023-02-08T08:47:15.834Z,99.90
2023-02-08T08:50:19.041Z,99.90
2023-02-08T08:53:22.062Z,99.90
2023-02-08T08:56:25.009Z,99.90
2023-02-08T08:59:29.553Z,99.90
2023-02-08T09:02:32.490Z,99.90
2023-02-08T09:05:36.328Z,99.90
2023-02-08T09:08:39.513Z,99.90
2023-02-08T09:11:42.684Z,99.90
2023-02-08T09:14:46.994Z,99.90
2023-02-08T09:17:49.981Z,99.90
2023-02-08T09:20:52.929Z,99.90
2023-02-08T09:23:56.193Z,99.90
2023-02-08T09:26:59.118Z,99.90
2023-02-08T09:30:03.451Z,99.90
2023-02-08T09:33:06.400Z,99.90
2023-02-08T09:36:10.219Z,99.90
2023-02-08T09:39:16.456Z,99.90
2023-02-08T09:42:33.222Z,99.90
2023-02-08T09:45:59.879Z,99.90
2023-02-08T09:49:06.227Z,99.90
2023-02-08T09:52:14.341Z,99.90
2023-02-08T09:55:28.713Z,99.90
2023-02-08T09:58:36.661Z,99.90
2023-02-08T10:01:40.988Z,99.90
2023-02-08T10:04:57.149Z,99.90
2023-02-08T10:08:02.671Z,99.90
2023-02-08T10:11:19.889Z,99.90
2023-02-08T10:14:46.500Z,99.90
2023-02-08T10:18:05.079Z,99.90
2023-02-08T10:21:24.808Z,99.90
2023-02-08T10:24:55.281Z,99.90
2023-02-08T10:28:16.452Z,99.90
2023-02-08T10:31:32.184Z,99.90
2023-02-08T10:34:45.735Z,99.90
2023-02-08T10:37:48.864Z,99.90
2023-02-08T10:40:55.538Z,99.90
2023-02-08T10:44:06.845Z,99.90
2023-02-08T10:47:16.013Z,99.90
2023-02-08T10:50:29.240Z,99.90
2023-02-08T10:53:33.330Z,99.90
2023-02-08T10:56:41.908Z,99.90
2023-02-08T10:59:51.978Z,99.90
2023-02-08T11:02:56.824Z,99.90
2023-02-08T11:06:01.117Z,99.90
2023-02-08T11:09:04.929Z,99.90
2023-02-08T11:12:17.857Z,99.90
2023-02-08T11:15:24.211Z,99.90
2023-02-08T11:18:30.801Z,99.90
2023-02-08T11:21:38.010Z,99.90
2023-02-08T11:24:43.420Z,99.90
2023-02-08T11:27:50.239Z,99.90
2023-02-08T11:30:59.513Z,99.90
2023-02-08T11:34:04.265Z,99.90
2023-02-08T11:37:16.048Z,99.70
2023-02-08T11:40:22.751Z,97.00
2023-02-08T11:43:28.263Z,97.00
2023-02-08T11:46:35.669Z,96.40
2023-02-08T11:49:41.624Z,95.70
2023-02-08T11:52:54.002Z,94.80
2023-02-08T11:56:08.902Z,93.80
2023-02-08T11:59:21.175Z,91.80
2023-02-08T12:02:31.527Z,91.90
2023-02-08T12:05:45.106Z,91.80
2023-02-08T12:08:58.247Z,90.30
2023-02-08T12:12:09.397Z,90.20
2023-02-08T12:15:21.929Z,89.40
2023-02-08T12:18:41.811Z,90.10
2023-02-08T12:21:46.004Z,87.50
2023-02-08T12:24:52.687Z,83.90
2023-02-08T12:28:02.772Z,81.20
2023-02-08T12:31:15.153Z,81.10
2023-02-08T12:34:23.577Z,79.10
2023-02-08T12:37:54.164Z,77.50
2023-02-08T12:41:08.655Z,78.10
2023-02-08T12:44:20.380Z,80.00
2023-02-08T12:47:36.467Z,77.00
2023-02-08T12:50:45.430Z,77.50
2023-02-08T12:53:52.446Z,78.70
2023-02-08T12:57:02.359Z,76.30
2023-02-08T13:00:08.565Z,74.70
2023-02-08T13:03:22.720Z,74.80
2023-02-08T13:06:30.527Z,76.10
2023-02-08T13:09:44.236Z,75.90
2023-02-08T13:12:53.284Z,73.50
2023-02-08T13:16:00.791Z,72.60
2023-02-08T13:19:22.798Z,72.30
2023-02-08T13:22:26.180Z,68.30
2023-02-08T13:25:32.592Z,68.00
2023-02-08T13:28:37.089Z,68.20
2023-02-08T13:31:43.198Z,67.20
2023-02-08T13:34:50.411Z,67.20
2023-02-08T13:37:56.974Z,67.70
2023-02-08T13:41:09.655Z,68.90
2023-02-08T13:44:21.910Z,67.10
2023-02-08T13:47:28.288Z,67.80
2023-02-08T13:50:44.928Z,69.20
2023-02-08T13:54:12.216Z,67.60
2023-02-08T13:57:53.213Z,68.00
2023-02-08T14:01:19.727Z,70.40
2023-02-08T14:04:34.547Z,71.60
2023-02-08T14:07:44.626Z,70.70
2023-02-08T14:11:01.382Z,70.80
2023-02-08T14:14:08.162Z,68.90
2023-02-08T14:17:20.031Z,69.60
2023-02-08T14:20:28.126Z,71.40
2023-02-08T14:23:32.088Z,72.40
2023-02-08T14:26:37.300Z,73.20
2023-02-08T14:29:40.283Z,74.70
2023-02-08T14:32:47.682Z,77.00
2023-02-08T14:35:57.501Z,79.60
2023-02-08T14:39:22.306Z,82.80
2023-02-08T14:42:54.999Z,85.40
2023-02-08T14:45:59.009Z,88.60
2023-02-08T14:49:06.162Z,90.70
2023-02-08T14:52:14.149Z,91.80
2023-02-08T14:55:26.490Z,92.30
2023-02-08T14:58:32.679Z,92.80
2023-02-08T15:01:45.217Z,93.30
2023-02-08T15:04:49.943Z,94.20
2023-02-08T15:07:55.996Z,94.70
2023-02-08T15:10:59.287Z,94.70
2023-02-08T15:14:05.877Z,95.30
2023-02-08T15:17:21.383Z,95.90
2023-02-08T15:20:27.931Z,96.20
2023-02-08T15:23:31.678Z,96.90
2023-02-08T15:26:34.997Z,97.20
2023-02-08T15:29:44.840Z,97.70
2023-02-08T15:32:47.982Z,98.70
2023-02-08T15:35:59.683Z,98.90
2023-02-08T15:39:09.861Z,99.60
2023-02-08T15:42:18.128Z,99.90
2023-02-08T15:45:26.183Z,99.90
2023-02-08T15:48:30.002Z,99.90
2023-02-08T15:51:34.528Z,99.90
2023-02-08T15:54:37.568Z,99.90
2023-02-08T15:57:44.853Z,99.90
2023-02-08T16:00:48.417Z,99.90
2023-02-08T16:03:56.258Z,99.90
2023-02-08T16:07:00.643Z,99.90
2023-02-08T16:10:04.571Z,99.90
2023-02-08T16:13:15.999Z,99.90
2023-02-08T16:16:22.134Z,99.90
2023-02-08T16:19:27.510Z,99.90
2023-02-08T16:22:33.663Z,99.90
2023-02-08T16:25:45.005Z,99.90
2023-02-08T16:28:57.921Z,99.90
2023-02-08T16:32:12.629Z,99.90
2023-02-08T16:35:23.040Z,99.90
2023-02-08T16:38:27.512Z,99.90
2023-02-08T16:42:15.593Z,99.90
2023-02-08T16:45:22.432Z,99.90
2023-02-08T16:48:33.241Z,99.90
2023-02-08T16:51:39.388Z,99.90
2023-02-08T16:54:43.703Z,99.90
2023-02-08T16:57:49.265Z,99.90
2023-02-08T17:00:52.344Z,99.90
2023-02-08T17:03:55.627Z,99.90
2023-02-08T17:06:58.669Z,99.90
2023-02-08T17:10:02.945Z,99.90
2023-02-08T17:13:19.731Z,99.90
2023-02-08T17:16:24.917Z,99.90
2023-02-08T17:19:27.885Z,99.90
2023-02-08T17:22:30.838Z,99.90
2023-02-08T17:25:36.349Z,99.90
2023-02-08T17:28:39.522Z,99.90
2023-02-08T17:31:42.550Z,99.90
2023-02-08T17:34:45.514Z,99.90
2023-02-08T17:37:50.462Z,99.90
2023-02-08T17:40:54.805Z,99.90
2023-02-08T17:43:58.727Z,99.90
2023-02-08T17:47:01.640Z,99.90
2023-02-08T17:50:05.000Z,99.90
2023-02-08T17:53:08.465Z,99.90
2023-02-08T17:56:14.295Z,99.90
2023-02-08T17:59:17.311Z,99.90
2023-02-08T18:02:20.296Z,99.90
2023-02-08T18:05:25.494Z,99.90
2023-02-08T18:08:29.212Z,99.90
2023-02-08T18:11:33.476Z,99.90
2023-02-08T18:14:38.053Z,99.90
2023-02-08T18:17:41.483Z,99.90
2023-02-08T18:20:45.321Z,99.90
2023-02-08T18:23:49.415Z,99.90
2023-02-08T18:26:53.797Z,99.90
2023-02-08T18:29:56.732Z,99.90
2023-02-08T18:32:59.689Z,99.90
2023-02-08T18:36:03.028Z,99.90
2023-02-08T18:39:05.955Z,99.90
2023-02-08T18:42:11.713Z,99.90
2023-02-08T18:45:14.673Z,99.90
2023-02-08T18:48:17.633Z,99.90
2023-02-08T18:51:22.122Z,99.90
2023-02-08T18:54:25.084Z,99.90
2023-02-08T18:57:29.376Z,99.90
2023-02-08T19:00:32.349Z,99.90
2023-02-08T19:03:36.106Z,99.90
2023-02-08T19:06:39.050Z,99.90
2023-02-08T19:09:43.811Z,99.90
2023-02-08T19:12:48.052Z,99.90
2023-02-08T19:15:51.093Z,99.90
2023-02-08T19:18:56.332Z,99.90
2023-02-08T19:21:59.316Z,99.90
2023-02-08T19:25:02.272Z,99.90
2023-02-08T19:28:07.090Z,99.90
2023-02-08T19:31:13.052Z,99.90
2023-02-08T19:34:16.149Z,99.90
2023-02-08T19:37:19.145Z,99.90
2023-02-08T19:40:23.483Z,99.90
2023-02-08T19:43:28.608Z,99.90
2023-02-08T19:46:32.980Z,99.90
2023-02-08T19:49:35.960Z,99.90
2023-02-08T19:52:42.794Z,99.90
2023-02-08T19:55:55.686Z,99.90
2023-02-08T19:59:00.016Z,99.90
2023-02-08T20:02:03.165Z,99.90
2023-02-08T20:05:06.899Z,99.90
2023-02-08T20:08:09.833Z,99.90
2023-02-08T20:11:20.554Z,99.90
2023-02-08T20:14:25.059Z,99.90
2023-02-08T20:17:27.999Z,99.90
2023-02-08T20:20:31.313Z,99.90
2023-02-08T20:23:34.404Z,99.90
2023-02-08T20:26:40.233Z,99.90
2023-02-08T20:29:44.492Z,99.90
2023-02-08T20:32:47.741Z,99.90
2023-02-08T20:35:50.729Z,99.90
2023-02-08T20:38:55.589Z,99.90
2023-02-08T20:41:58.546Z,99.90
2023-02-08T20:45:02.982Z,99.90
2023-02-08T20:48:06.414Z,99.90
2023-02-08T20:51:11.545Z,99.90
2023-02-08T20:54:15.155Z,99.90
2023-02-08T20:57:18.675Z,99.90
2023-02-08T21:00:26.014Z,99.90
2023-02-08T21:03:33.431Z,99.90
2023-02-08T21:06:38.520Z,99.90
2023-02-08T21:09:41.436Z,99.90
2023-02-08T21:12:44.357Z,99.90
2023-02-08T21:15:48.608Z,99.90
2023-02-08T21:18:51.962Z,99.90
2023-02-08T21:21:57.341Z,99.90
2023-02-08T21:25:00.262Z,99.90
2023-02-08T21:28:03.286Z,99.90
2023-02-08T21:31:11.213Z,99.90
2023-02-08T21:34:14.378Z,99.90
2023-02-08T21:37:17.305Z,99.90
2023-02-08T21:40:20.521Z,99.90
2023-02-08T21:43:23.470Z,99.90
2023-02-08T21:46:28.503Z,99.90
2023-02-08T21:49:49.494Z,99.90
2023-02-08T21:53:09.964Z,99.90
2023-02-08T21:56:12.930Z,99.90
2023-02-08T21:59:15.844Z,99.90
2023-02-08T22:02:23.354Z,99.90
2023-02-08T22:05:43.982Z,99.90
2023-02-08T22:08:46.918Z,99.90
2023-02-08T22:11:49.920Z,99.90
2023-02-08T22:14:52.867Z,99.90
2023-02-08T22:17:58.929Z,99.90
2023-02-08T22:21:04.137Z,99.90
2023-02-08T22:24:07.435Z,99.90
2023-02-08T22:27:10.623Z,99.90
2023-02-08T22:30:15.952Z,99.90
2023-02-08T22:33:20.243Z,99.90
2023-02-08T22:36:23.226Z,99.90
2023-02-08T22:39:26.262Z,99.90
2023-02-08T22:42:29.384Z,99.90
2023-02-08T22:45:32.452Z,99.90
2023-02-08T22:48:36.770Z,99.90
2023-02-08T22:51:39.715Z,99.90
2023-02-08T22:54:42.764Z,99.90
2023-02-08T22:57:45.745Z,99.90
2023-02-08T23:00:49.337Z,99.90
2023-02-08T23:03:53.634Z,99.90
2023-02-08T23:06:57.015Z,99.90
2023-02-08T23:09:59.932Z,99.90
2023-02-08T23:13:03.352Z,99.90
2023-02-08T23:16:06.861Z,99.90
2023-02-08T23:19:14.105Z,99.90
2023-02-08T23:22:17.022Z,99.90
2023-02-08T23:25:20.473Z,99.90
2023-02-08T23:28:23.560Z,99.90
2023-02-08T23:31:27.904Z,99.90
2023-02-08T23:34:32.302Z,99.90
2023-02-08T23:37:35.262Z,99.90
2023-02-08T23:40:40.448Z,99.90
2023-02-08T23:43:43.856Z,99.90
2023-02-08T23:46:46.885Z,99.90
2023-02-08T23:49:51.274Z,99.90
2023-02-08T23:52:56.426Z,99.90
2023-02-08T23:56:08.889Z,99.90
2023-02-08T23:59:11.967Z,99.90
